createdAt,value
2023-12-14T00:00:33.804Z,48.83
2023-12-14T00:03:02.050Z,46.85
2023-12-14T00:05:29.841Z,44.75
2023-12-14T00:07:57.653Z,46.45
2023-12-14T00:10:25.984Z,44.97
2023-12-14T00:12:56.438Z,45.08
2023-12-14T00:15:24.349Z,43.30
2023-12-14T00:17:52.453Z,46.10
2023-12-14T00:20:20.612Z,46.70
2023-12-14T00:22:48.498Z,43.75
2023-12-14T00:25:16.676Z,42.70
2023-12-14T00:27:44.562Z,45.10
2023-12-14T00:30:14.984Z,47.72
2023-12-14T00:32:42.809Z,43.65
2023-12-14T00:35:10.717Z,46.35
2023-12-14T00:37:38.961Z,42.60
2023-12-14T00:40:08.051Z,44.90
2023-12-14T00:42:36.116Z,46.40
2023-12-14T00:45:04.352Z,47.85
2023-12-14T00:47:33.521Z,47.55
2023-12-14T00:50:01.456Z,45.40
2023-12-14T00:52:29.609Z,47.05
2023-12-14T00:54:57.472Z,47.53
2023-12-14T00:57:25.371Z,44.83
2023-12-14T00:59:53.598Z,45.97
2023-12-14T01:02:21.485Z,47.95
2023-12-14T01:04:50.713Z,44.55
2023-12-14T01:07:18.794Z,45.35
2023-12-14T01:09:46.626Z,53.17
2023-12-14T01:12:14.417Z,45.05
2023-12-14T01:14:42.425Z,47.60
2023-12-14T01:17:10.412Z,47.45
2023-12-14T01:19:41.971Z,47.50
2023-12-14T01:22:11.427Z,48.38
2023-12-14T01:24:39.239Z,48.38
2023-12-14T01:27:07.176Z,47.50
2023-12-14T01:29:35.363Z,46.80
2023-12-14T01:32:03.204Z,44.80
2023-12-14T01:34:31.143Z,47.30
2023-12-14T01:36:59.402Z,47.65
2023-12-14T01:39:28.564Z,48.20
2023-12-14T01:41:56.389Z,51.70
2023-12-14T01:44:24.500Z,51.30
2023-12-14T01:46:52.432Z,52.15
2023-12-14T01:49:20.281Z,54.22
2023-12-14T01:51:48.304Z,54.20
2023-12-14T01:54:16.096Z,52.78
2023-12-14T01:56:45.405Z,50.22
2023-12-14T01:59:13.303Z,50.42
2023-12-14T02:01:44.399Z,47.90
2023-12-14T02:04:13.334Z,47.58
2023-12-14T02:06:41.483Z,42.53
2023-12-14T02:09:09.350Z,40.50
2023-12-14T02:11:37.495Z,39.20
2023-12-14T02:14:08.002Z,43.72
2023-12-14T02:16:35.885Z,38.65
2023-12-14T02:19:03.771Z,40.17
2023-12-14T02:21:31.876Z,40.72
2023-12-14T02:24:01.088Z,38.92
2023-12-14T02:26:28.923Z,34.65
2023-12-14T02:28:57.056Z,34.28
2023-12-14T02:31:25.349Z,34.15
2023-12-14T02:33:53.290Z,33.75
2023-12-14T02:36:21.336Z,39.85
2023-12-14T02:38:49.349Z,43.83
2023-12-14T02:41:18.767Z,39.53
2023-12-14T02:43:46.830Z,40.45
2023-12-14T02:46:16.576Z,37.80
2023-12-14T02:48:44.836Z,40.53
2023-12-14T02:51:15.967Z,40.78
2023-12-14T02:53:44.651Z,46.13
2023-12-14T02:56:13.256Z,45.33
2023-12-14T02:58:42.777Z,44.33
2023-12-14T03:01:10.672Z,47.67
2023-12-14T03:03:41.045Z,44.47
2023-12-14T03:06:09.540Z,42.90
2023-12-14T03:08:37.436Z,51.30
2023-12-14T03:11:05.645Z,42.80
2023-12-14T03:13:33.810Z,45.97
2023-12-14T03:16:03.215Z,41.78
2023-12-14T03:18:31.077Z,48.17
2023-12-14T03:20:59.134Z,41.05
2023-12-14T03:23:26.920Z,42.78
2023-12-14T03:25:54.797Z,46.22
2023-12-14T03:28:22.654Z,41.90
2023-12-14T03:30:50.528Z,43.67
2023-12-14T03:33:19.750Z,41.25
2023-12-14T03:35:48.002Z,50.40
2023-12-14T03:38:16.160Z,48.22
2023-12-14T03:40:44.117Z,50.53
2023-12-14T03:43:12.686Z,46.72
2023-12-14T03:45:40.667Z,44.35
2023-12-14T03:48:08.545Z,45.05
2023-12-14T03:50:38.371Z,44.78
2023-12-14T03:53:06.259Z,49.33
2023-12-14T03:55:34.492Z,48.63
2023-12-14T03:58:02.703Z,44.15
2023-12-14T04:00:30.605Z,46.35
2023-12-14T04:02:58.521Z,48.92
2023-12-14T04:05:26.747Z,49.60
2023-12-14T04:07:56.015Z,52.03
2023-12-14T04:10:23.829Z,47.47
2023-12-14T04:12:51.884Z,47.47
2023-12-14T04:15:19.862Z,49.10
2023-12-14T04:17:47.815Z,52.85
2023-12-14T04:20:17.285Z,46.40
2023-12-14T04:22:45.819Z,39.75
2023-12-14T04:25:15.334Z,39.22
2023-12-14T04:27:43.443Z,38.45
2023-12-14T04:30:12.933Z,34.05
2023-12-14T04:32:41.087Z,35.45
2023-12-14T04:35:10.373Z,32.17
2023-12-14T04:37:38.381Z,35.25
2023-12-14T04:40:07.468Z,34.47
2023-12-14T04:42:37.324Z,35.53
2023-12-14T04:45:06.378Z,37.22
2023-12-14T04:47:34.568Z,31.80
2023-12-14T04:50:02.578Z,33.70
2023-12-14T04:52:30.545Z,31.58
2023-12-14T04:54:58.727Z,28.55
2023-12-14T04:57:26.522Z,26.60
2023-12-14T04:59:55.715Z,28.85
2023-12-14T05:02:23.846Z,27.70
2023-12-14T05:04:51.718Z,26.50
2023-12-14T05:07:20.142Z,29.38
2023-12-14T05:09:48.270Z,27.05
2023-12-14T05:12:16.073Z,31.02
2023-12-14T05:14:43.878Z,27.60
2023-12-14T05:17:13.440Z,25.65
2023-12-14T05:22:09.159Z,24.80
2023-12-14T05:24:37.258Z,25.92
2023-12-14T05:27:05.493Z,23.88
2023-12-14T05:29:34.551Z,25.38
2023-12-14T05:32:02.719Z,25.90
2023-12-14T05:34:32.143Z,24.00
2023-12-14T05:37:00.017Z,26.48
2023-12-14T05:39:28.036Z,29.85
2023-12-14T05:41:55.804Z,27.58
2023-12-14T05:44:23.801Z,28.23
2023-12-14T05:46:52.918Z,27.60
2023-12-14T05:49:21.014Z,24.83
2023-12-14T05:51:50.603Z,23.85
2023-12-14T05:54:18.947Z,25.48
2023-12-14T05:56:46.740Z,24.92
2023-12-14T05:59:14.581Z,21.27
2023-12-14T06:01:44.907Z,21.50
2023-12-14T06:04:12.811Z,24.15
2023-12-14T06:06:41.088Z,20.83
2023-12-14T06:09:10.764Z,20.65
2023-12-14T06:14:06.588Z,22.05
2023-12-14T06:16:34.941Z,21.83
2023-12-14T06:19:02.924Z,22.15
2023-12-14T06:21:30.885Z,21.65
2023-12-14T06:24:00.807Z,20.45
2023-12-14T06:26:30.032Z,21.85
2023-12-14T06:28:57.834Z,21.80
2023-12-14T06:31:26.191Z,20.05
2023-12-14T06:33:55.038Z,21.35
2023-12-14T06:36:28.476Z,24.42
2023-12-14T06:38:56.323Z,22.08
2023-12-14T06:41:25.039Z,22.15
2023-12-14T06:43:55.263Z,21.13
2023-12-14T06:46:23.734Z,20.77
2023-12-14T06:48:52.043Z,22.25
2023-12-14T06:51:20.551Z,19.92
2023-12-14T06:53:49.507Z,22.48
2023-12-14T06:56:17.575Z,22.73
2023-12-14T06:58:47.531Z,22.55
2023-12-14T07:01:17.751Z,20.65
2023-12-14T07:03:46.563Z,22.98
2023-12-14T07:06:16.367Z,24.98
2023-12-14T07:08:45.443Z,21.05
2023-12-14T07:11:14.224Z,21.88
2023-12-14T07:13:42.948Z,21.13
2023-12-14T07:16:12.835Z,23.03
2023-12-14T07:18:44.409Z,20.52
2023-12-14T07:21:12.543Z,18.40
2023-12-14T07:23:40.672Z,20.65
2023-12-14T07:26:09.105Z,25.27
2023-12-14T07:28:37.133Z,22.20
2023-12-14T07:31:05.568Z,19.67
2023-12-14T07:33:33.864Z,22.38
2023-12-14T07:36:03.189Z,18.17
2023-12-14T07:38:30.949Z,18.38
2023-12-14T07:40:58.226Z,19.38
2023-12-14T07:43:26.450Z,21.67
2023-12-14T07:45:54.202Z,19.40
2023-12-14T07:48:22.593Z,18.75
2023-12-14T07:50:50.406Z,19.80
2023-12-14T07:53:19.610Z,23.02
2023-12-14T07:55:48.100Z,19.20
2023-12-14T07:58:15.979Z,20.92
2023-12-14T08:00:43.880Z,19.08
2023-12-14T08:03:12.217Z,24.92
2023-12-14T08:05:40.359Z,19.75
2023-12-14T08:08:08.458Z,19.67
2023-12-14T08:10:38.435Z,19.35
2023-12-14T08:13:06.299Z,21.13
2023-12-14T08:15:34.130Z,19.02
2023-12-14T08:18:02.614Z,21.92
2023-12-14T08:20:30.536Z,19.10
2023-12-14T08:22:58.386Z,17.60
2023-12-14T08:25:27.236Z,17.40
2023-12-14T08:27:56.426Z,18.02
2023-12-14T08:30:25.101Z,17.80
2023-12-14T08:32:53.517Z,19.17
2023-12-14T08:35:21.625Z,17.65
2023-12-14T08:37:49.849Z,17.67
2023-12-14T08:40:18.174Z,15.68
2023-12-14T08:42:46.020Z,13.98
2023-12-14T08:45:15.531Z,15.02
2023-12-14T08:47:44.746Z,15.00
2023-12-14T08:50:13.640Z,13.45
2023-12-14T08:52:41.562Z,13.32
2023-12-14T08:55:10.917Z,18.42
2023-12-14T08:57:38.745Z,14.00
2023-12-14T09:00:08.370Z,17.33
2023-12-14T09:05:07.824Z,15.55
2023-12-14T09:07:35.716Z,13.73
2023-12-14T09:10:04.151Z,11.43
2023-12-14T09:12:32.865Z,10.25
2023-12-14T09:15:01.149Z,12.70
2023-12-14T09:17:37.282Z,11.68
2023-12-14T09:20:09.113Z,16.40
2023-12-14T09:22:37.571Z,9.65
2023-12-14T09:25:06.149Z,9.88
2023-12-14T09:27:34.431Z,13.82
2023-12-14T09:30:02.912Z,10.38
2023-12-14T09:32:31.208Z,15.02
2023-12-14T09:34:59.191Z,11.38
2023-12-14T09:37:29.042Z,8.75
2023-12-14T09:39:56.984Z,11.35
2023-12-14T09:42:25.005Z,12.85
2023-12-14T09:44:55.235Z,14.68
2023-12-14T09:47:23.109Z,9.90
2023-12-14T09:49:53.921Z,15.05
2023-12-14T09:52:22.388Z,12.68
2023-12-14T09:54:53.732Z,14.85
2023-12-14T09:57:24.424Z,17.23
2023-12-14T09:59:56.256Z,12.10
2023-12-14T10:02:28.436Z,13.05
2023-12-14T10:04:56.646Z,11.43
2023-12-14T10:07:25.054Z,10.13
2023-12-14T10:09:55.141Z,11.27
2023-12-14T10:12:24.327Z,13.60
2023-12-14T10:15:03.155Z,10.77
2023-12-14T10:17:33.945Z,11.98
2023-12-14T10:20:06.944Z,11.90
2023-12-14T10:22:34.774Z,15.27
2023-12-14T10:25:04.604Z,11.15
2023-12-14T10:27:34.585Z,13.90
2023-12-14T10:30:07.427Z,11.10
2023-12-14T10:32:36.658Z,12.52
2023-12-14T10:35:05.031Z,10.05
2023-12-14T10:37:35.301Z,12.20
2023-12-14T10:40:06.947Z,16.48
2023-12-14T10:42:38.084Z,29.88
2023-12-14T10:45:17.144Z,35.53
2023-12-14T10:47:49.185Z,31.17
2023-12-14T10:50:18.663Z,15.18
2023-12-14T10:52:47.129Z,17.17
2023-12-14T10:55:24.004Z,21.27
2023-12-14T10:57:53.991Z,16.83
2023-12-14T11:00:22.046Z,10.70
2023-12-14T11:02:50.975Z,12.73
2023-12-14T11:05:24.129Z,8.60
2023-12-14T11:07:56.229Z,14.45
2023-12-14T11:10:29.161Z,10.93
2023-12-14T11:12:59.218Z,15.55
2023-12-14T11:15:28.511Z,10.15
2023-12-14T11:18:30.014Z,7.80
2023-12-14T11:21:00.088Z,9.18
2023-12-14T11:23:40.549Z,24.05
2023-12-14T11:26:12.265Z,17.58
2023-12-14T11:28:43.944Z,15.10
2023-12-14T11:31:13.500Z,11.93
2023-12-14T11:33:44.190Z,13.50
2023-12-14T11:36:17.320Z,8.82
2023-12-14T11:38:45.926Z,17.17
2023-12-14T11:41:15.524Z,23.13
2023-12-14T11:46:12.355Z,29.25
2023-12-14T11:48:40.509Z,26.65
2023-12-14T11:51:09.113Z,12.48
2023-12-14T11:53:39.777Z,29.23
2023-12-14T11:56:09.354Z,17.95
2023-12-14T11:58:38.619Z,24.83
2023-12-14T12:01:14.930Z,23.65
2023-12-14T12:03:43.065Z,24.77
2023-12-14T12:06:11.029Z,25.33
2023-12-14T12:08:44.871Z,31.35
2023-12-14T12:11:12.811Z,33.38
2023-12-14T12:13:41.983Z,33.15
2023-12-14T12:16:10.237Z,25.98
2023-12-14T12:18:40.847Z,30.45
2023-12-14T12:21:10.646Z,57.65
2023-12-14T12:23:38.437Z,41.58
2023-12-14T12:26:06.467Z,30.95
2023-12-14T12:28:34.840Z,40.75
2023-12-14T12:31:05.475Z,26.50
2023-12-14T12:33:39.160Z,33.05
2023-12-14T12:36:08.729Z,21.50
2023-12-14T12:38:42.039Z,21.92
2023-12-14T12:41:10.080Z,27.92
2023-12-14T12:43:38.273Z,30.05
2023-12-14T12:46:08.709Z,27.95
2023-12-14T12:48:36.865Z,33.10
2023-12-14T12:51:05.318Z,86.93
2023-12-14T12:53:34.934Z,49.70
2023-12-14T12:58:31.368Z,21.25
2023-12-14T13:00:59.937Z,22.23
2023-12-14T13:03:29.246Z,23.60
2023-12-14T13:05:57.434Z,24.92
2023-12-14T13:08:25.452Z,44.97
2023-12-14T13:10:55.845Z,27.05
2023-12-14T13:13:24.236Z,36.38
2023-12-14T13:15:52.658Z,29.42
2023-12-14T13:18:20.732Z,49.15
2023-12-14T13:20:50.178Z,43.22
2023-12-14T13:23:18.760Z,22.95
2023-12-14T13:25:47.027Z,28.50
2023-12-14T13:28:17.662Z,148.05
2023-12-14T13:30:46.806Z,81.70
2023-12-14T13:33:15.418Z,76.53
2023-12-14T13:35:44.080Z,73.00
2023-12-14T13:38:14.104Z,48.35
2023-12-14T13:40:42.147Z,56.80
2023-12-14T13:43:11.867Z,39.47
2023-12-14T13:45:42.726Z,39.17
2023-12-14T13:48:10.922Z,22.05
2023-12-14T13:50:38.934Z,21.88
2023-12-14T13:53:07.224Z,28.92
2023-12-14T13:55:36.545Z,25.20
2023-12-14T13:58:04.420Z,112.30
2023-12-14T14:00:34.124Z,45.08
2023-12-14T14:05:29.727Z,25.75
2023-12-14T14:07:58.025Z,35.65
2023-12-14T14:10:26.157Z,23.75
2023-12-14T14:12:55.370Z,25.05
2023-12-14T14:15:23.290Z,22.75
2023-12-14T14:17:53.576Z,35.33
2023-12-14T14:20:21.861Z,28.20
2023-12-14T14:22:49.959Z,18.75
2023-12-14T14:25:17.905Z,29.30
2023-12-14T14:27:47.908Z,31.15
2023-12-14T14:30:18.367Z,15.95
2023-12-14T14:32:46.516Z,15.70
2023-12-14T14:35:15.139Z,16.95
2023-12-14T14:37:46.934Z,39.00
2023-12-14T14:40:15.558Z,27.10
2023-12-14T14:42:43.882Z,25.17
2023-12-14T14:45:12.509Z,25.48
2023-12-14T14:47:42.218Z,14.55
2023-12-14T14:50:10.994Z,24.10
2023-12-14T14:52:39.281Z,14.23
2023-12-14T14:55:07.770Z,13.05
2023-12-14T14:57:35.921Z,18.45
2023-12-14T15:00:04.633Z,13.15
2023-12-14T15:02:32.558Z,15.83
2023-12-14T15:05:01.978Z,13.00
2023-12-14T15:07:31.656Z,13.90
2023-12-14T15:12:28.729Z,16.60
2023-12-14T15:14:57.486Z,12.90
2023-12-14T15:17:25.669Z,53.80
2023-12-14T15:19:53.697Z,27.65
2023-12-14T15:22:22.961Z,19.70
2023-12-14T15:24:50.768Z,20.40
2023-12-14T15:27:18.572Z,13.82
2023-12-14T15:29:47.511Z,13.88
2023-12-14T15:32:16.010Z,24.95
2023-12-14T15:34:44.139Z,19.95
2023-12-14T15:37:12.201Z,19.50
2023-12-14T15:39:41.531Z,27.55
2023-12-14T15:42:09.345Z,14.40
2023-12-14T15:44:37.206Z,15.95
2023-12-14T15:47:05.338Z,16.77
2023-12-14T15:49:33.189Z,21.48
2023-12-14T15:52:01.107Z,17.00
2023-12-14T15:54:28.926Z,20.85
2023-12-14T15:56:59.641Z,11.77
2023-12-14T15:59:28.583Z,12.55
2023-12-14T16:01:56.754Z,12.52
2023-12-14T16:04:24.617Z,10.93
2023-12-14T16:06:52.774Z,12.77
2023-12-14T16:09:20.648Z,11.52
2023-12-14T16:11:48.508Z,7.50
2023-12-14T16:14:18.653Z,10.57
2023-12-14T16:16:46.528Z,8.00
2023-12-14T16:19:14.429Z,15.90
2023-12-14T16:21:42.448Z,9.57
2023-12-14T16:24:10.261Z,12.43
2023-12-14T16:26:40.566Z,8.63
2023-12-14T16:29:08.822Z,8.20
2023-12-14T16:31:43.565Z,9.45
2023-12-14T16:34:11.679Z,8.20
2023-12-14T16:36:39.644Z,13.40
2023-12-14T16:39:10.752Z,10.48
2023-12-14T16:41:38.718Z,9.35
2023-12-14T16:44:06.877Z,10.77
2023-12-14T16:46:34.889Z,11.20
2023-12-14T16:49:04.611Z,12.45
2023-12-14T16:51:32.908Z,10.73
2023-12-14T16:54:03.405Z,9.73
2023-12-14T16:56:34.354Z,9.73
2023-12-14T17:01:30.188Z,9.32
2023-12-14T17:03:58.417Z,11.07
2023-12-14T17:06:27.636Z,9.88
2023-12-14T17:08:56.644Z,9.18
2023-12-14T17:11:25.028Z,9.60
2023-12-14T17:13:53.242Z,9.15
2023-12-14T17:16:23.500Z,9.48
2023-12-14T17:18:51.421Z,8.52
2023-12-14T17:21:20.334Z,14.43
2023-12-14T17:23:49.976Z,10.07
2023-12-14T17:28:47.241Z,8.77
2023-12-14T17:31:16.731Z,6.68
2023-12-14T17:33:45.360Z,9.70
2023-12-14T17:36:13.445Z,10.80
2023-12-14T17:38:41.637Z,11.63
2023-12-14T17:41:13.552Z,10.18
2023-12-14T17:43:41.801Z,11.13
2023-12-14T17:46:10.056Z,8.85
2023-12-14T17:48:38.268Z,10.45
2023-12-14T17:51:06.820Z,7.68
2023-12-14T17:53:35.222Z,10.43
2023-12-14T17:56:03.704Z,12.43
2023-12-14T17:58:32.996Z,11.93
2023-12-14T18:01:05.599Z,15.98
2023-12-14T18:03:34.697Z,12.52
2023-12-14T18:06:04.164Z,13.30
2023-12-14T18:08:32.221Z,9.98
2023-12-14T18:11:00.197Z,14.80
2023-12-14T18:13:28.298Z,28.30
2023-12-14T18:15:57.915Z,18.33
2023-12-14T18:20:54.969Z,14.13
2023-12-14T18:23:22.923Z,14.65
2023-12-14T18:25:50.851Z,15.55
2023-12-14T18:28:19.720Z,12.18
2023-12-14T18:30:47.918Z,12.88
2023-12-14T18:33:18.131Z,17.17
2023-12-14T18:35:46.056Z,17.88
2023-12-14T18:38:13.877Z,13.43
2023-12-14T18:40:41.721Z,11.43
2023-12-14T18:43:10.478Z,13.68
2023-12-14T18:45:40.045Z,11.20
2023-12-14T18:48:08.248Z,15.82
2023-12-14T18:50:38.244Z,14.40
2023-12-14T18:53:09.980Z,16.25
2023-12-14T18:55:38.277Z,15.77
2023-12-14T18:58:06.984Z,18.80
2023-12-14T19:00:34.842Z,12.60
2023-12-14T19:03:06.041Z,11.00
2023-12-14T19:05:36.773Z,16.63
2023-12-14T19:08:06.358Z,16.17
2023-12-14T19:10:35.339Z,14.80
2023-12-14T19:13:04.068Z,14.93
2023-12-14T19:15:32.795Z,14.20
2023-12-14T19:18:00.899Z,16.40
2023-12-14T19:20:28.969Z,15.70
2023-12-14T19:22:56.993Z,14.50
2023-12-14T19:25:26.198Z,13.10
2023-12-14T19:27:54.172Z,12.82
2023-12-14T19:30:22.840Z,9.82
2023-12-14T19:32:53.208Z,14.37
2023-12-14T19:35:21.343Z,14.60
2023-12-14T19:37:50.109Z,14.35
2023-12-14T19:40:19.053Z,13.63
2023-12-14T19:42:48.410Z,13.63
2023-12-14T19:45:16.306Z,11.52
2023-12-14T19:47:44.300Z,14.48
2023-12-14T19:50:12.911Z,13.07
2023-12-14T19:52:41.762Z,13.57
2023-12-14T19:55:12.667Z,11.02
2023-12-14T19:57:40.660Z,12.30
2023-12-14T20:00:12.239Z,11.60
2023-12-14T20:02:40.470Z,12.93
2023-12-14T20:05:09.279Z,13.15
2023-12-14T20:07:37.425Z,17.73
2023-12-14T20:10:06.328Z,12.00
2023-12-14T20:12:34.163Z,14.60
2023-12-14T20:15:02.033Z,10.52
2023-12-14T20:17:31.708Z,13.02
2023-12-14T20:22:27.806Z,13.90
2023-12-14T20:24:55.650Z,13.63
2023-12-14T20:27:23.484Z,16.70
2023-12-14T20:29:51.303Z,18.20
2023-12-14T20:32:19.363Z,12.68
2023-12-14T20:34:48.646Z,13.88
2023-12-14T20:37:16.457Z,13.68
2023-12-14T20:39:44.329Z,12.73
2023-12-14T20:42:12.132Z,12.23
2023-12-14T20:44:39.960Z,18.27
2023-12-14T20:47:08.066Z,17.38
2023-12-14T20:49:35.912Z,11.98
2023-12-14T20:52:05.540Z,13.85
2023-12-14T20:57:01.048Z,11.23
2023-12-14T20:59:28.934Z,11.95
2023-12-14T21:01:58.108Z,11.23
2023-12-14T21:04:26.131Z,17.80
2023-12-14T21:06:54.203Z,13.68
2023-12-14T21:09:23.596Z,12.18
2023-12-14T21:11:51.503Z,18.50
2023-12-14T21:14:19.373Z,14.63
2023-12-14T21:16:51.893Z,17.75
2023-12-14T21:19:20.245Z,11.82
2023-12-14T21:21:48.880Z,11.88
2023-12-14T21:24:18.730Z,13.90
2023-12-14T21:27:08.889Z,12.05
2023-12-14T21:29:37.101Z,13.32
2023-12-14T21:32:05.528Z,12.95
2023-12-14T21:34:33.683Z,12.43
2023-12-14T21:37:01.560Z,8.88
2023-12-14T21:39:29.452Z,10.35
2023-12-14T21:41:58.679Z,9.40
2023-12-14T21:44:26.701Z,11.88
2023-12-14T21:46:54.772Z,10.10
2023-12-14T21:49:23.168Z,10.48
2023-12-14T21:51:51.090Z,10.30
2023-12-14T21:54:18.978Z,11.57
2023-12-14T21:56:47.037Z,12.02
2023-12-14T21:59:16.520Z,13.18
2023-12-14T22:01:44.450Z,11.98
2023-12-14T22:04:12.301Z,12.73
2023-12-14T22:06:40.183Z,11.60
2023-12-14T22:09:08.185Z,14.07
2023-12-14T22:11:35.983Z,11.95
2023-12-14T22:14:04.335Z,13.82
2023-12-14T22:16:34.405Z,13.93
2023-12-14T22:19:02.503Z,11.30
2023-12-14T22:21:30.663Z,11.02
2023-12-14T22:23:58.525Z,12.73
2023-12-14T22:26:26.423Z,11.77
2023-12-14T22:28:54.389Z,12.05
2023-12-14T22:31:22.288Z,12.75
2023-12-14T22:33:51.629Z,11.68
2023-12-14T22:36:19.950Z,13.30
2023-12-14T22:38:47.776Z,12.48
2023-12-14T22:41:16.542Z,13.82
2023-12-14T22:43:44.910Z,14.87
2023-12-14T22:46:12.810Z,11.40
2023-12-14T22:48:40.773Z,12.52
2023-12-14T22:51:17.232Z,11.73
2023-12-14T22:53:45.393Z,12.80
2023-12-14T22:56:13.384Z,12.48
2023-12-14T22:58:41.249Z,13.55
2023-12-14T23:01:09.086Z,11.93
2023-12-14T23:03:37.006Z,14.82
2023-12-14T23:06:05.292Z,14.23
2023-12-14T23:08:34.516Z,15.57
2023-12-14T23:11:02.486Z,12.73
2023-12-14T23:13:30.340Z,13.02
2023-12-14T23:15:58.154Z,11.57
2023-12-14T23:18:26.037Z,12.73
2023-12-14T23:20:53.917Z,15.90
2023-12-14T23:23:21.741Z,12.70
2023-12-14T23:25:50.960Z,13.88
2023-12-14T23:28:23.010Z,13.43
2023-12-14T23:30:51.017Z,13.52
2023-12-14T23:33:19.091Z,12.10
2023-12-14T23:35:50.777Z,15.50
2023-12-14T23:38:19.205Z,16.42
2023-12-14T23:40:47.584Z,15.93
2023-12-14T23:43:16.829Z,13.18
2023-12-14T23:45:45.805Z,14.82
2023-12-14T23:48:13.878Z,14.43
2023-12-14T23:50:41.716Z,14.43
2023-12-14T23:53:09.844Z,14.52
2023-12-14T23:55:37.977Z,18.20
2023-12-14T23:58:05.786Z,14.68
